Time;durP1;ratioP1;P1;durP2;ratioP2;P2;SDS_P1;SDS_P2;PMS_P1;PMS_P2;Temp;Humidity;BMP_temperature;BMP_pressure;BME280_temperature;BME280_humidity;BME280_pressure;Samples;Min_cycle;Max_cycle;Signal;HPM_P1;HPM_P2
2023/07/01 00:01:40;;;;;;;4.68;2.33;;;20.50;78.60;;;;;;6245426;22;20015;-73
2023/07/01 00:04:06;;;;;;;6.18;2.03;;;20.50;78.50;;;;;;6271805;22;20000;-73
2023/07/01 00:06:32;;;;;;;8.93;1.70;;;20.50;78.40;;;;;;6272100;22;20046;-73
2023/07/01 00:08:58;;;;;;;3.15;1.95;;;20.50;78.30;;;;;;6244577;22;20306;-73
2023/07/01 00:11:23;;;;;;;4.20;2.40;;;20.40;78.00;;;;;;6271648;22;20049;-73
2023/07/01 00:13:49;;;;;;;3.80;1.60;;;20.40;77.80;;;;;;6271583;22;20003;-73
2023/07/01 00:16:14;;;;;;;6.22;2.30;;;20.40;77.50;;;;;;6271484;22;20023;-73
2023/07/01 00:18:41;;;;;;;4.28;1.80;;;20.40;77.50;;;;;;6272226;22;20114;-73
2023/07/01 00:21:07;;;;;;;6.15;1.80;;;20.40;77.30;;;;;;6271634;22;20418;-73
2023/07/01 00:23:33;;;;;;;5.65;2.05;;;20.40;77.00;;;;;;6271757;22;20003;-72
2023/07/01 00:25:59;;;;;;;4.05;1.95;;;20.40;76.90;;;;;;6271630;22;19996;-73
2023/07/01 00:28:25;;;;;;;3.90;1.60;;;20.40;76.70;;;;;;6271155;22;20006;-73
2023/07/01 00:30:50;;;;;;;4.78;1.90;;;20.40;76.70;;;;;;6271938;22;20004;-73
2023/07/01 00:33:16;;;;;;;5.78;1.75;;;20.30;76.60;;;;;;6271489;22;20072;-73
2023/07/01 00:35:42;;;;;;;4.68;1.90;;;20.30;76.70;;;;;;6244790;22;20392;-73
2023/07/01 00:38:07;;;;;;;5.25;2.50;;;20.30;76.50;;;;;;6271288;22;19996;-73
2023/07/01 00:40:33;;;;;;;4.00;1.98;;;20.30;76.30;;;;;;6271671;22;20012;-73
2023/07/01 00:42:59;;;;;;;4.88;2.20;;;20.30;76.30;;;;;;6270412;22;20323;-73
2023/07/01 00:45:24;;;;;;;4.43;2.17;;;20.30;76.40;;;;;;6271816;22;20075;-73
2023/07/01 00:47:50;;;;;;;6.50;1.95;;;20.30;76.40;;;;;;6272117;22;20386;-72
2023/07/01 00:50:15;;;;;;;4.30;1.85;;;20.30;76.50;;;;;;6243568;22;20035;-72
2023/07/01 00:52:42;;;;;;;3.90;1.70;;;20.30;76.60;;;;;;6271795;22;20091;-73
2023/07/01 00:55:12;;;;;;;4.43;1.90;;;20.30;76.40;;;;;;6270509;22;20106;-72
2023/07/01 00:57:38;;;;;;;4.30;1.52;;;20.30;76.30;;;;;;6271453;22;19999;-73
2023/07/01 01:00:10;;;;;;;5.68;1.73;;;20.30;76.40;;;;;;6271232;22;20038;-72
2023/07/01 01:03:20;;;;;;;3.67;2.15;;;20.30;76.40;;;;;;6271571;22;20006;-73
2023/07/01 01:05:59;;;;;;;5.25;2.05;;;20.30;76.40;;;;;;6272111;22;19996;-72
2023/07/01 01:08:36;;;;;;;3.85;2.00;;;20.20;76.30;;;;;;6243358;22;20024;-72
2023/07/01 01:11:03;;;;;;;6.35;2.05;;;20.20;76.20;;;;;;6243347;22;20015;-73
2023/07/01 01:13:30;;;;;;;5.13;2.25;;;20.20;76.20;;;;;;6271881;22;20068;-72
2023/07/01 01:15:58;;;;;;;5.78;1.83;;;20.20;76.30;;;;;;6244052;22;20060;-73
2023/07/01 01:18:28;;;;;;;4.28;2.33;;;20.20;76.50;;;;;;6271965;22;20003;-72
2023/07/01 01:20:55;;;;;;;3.40;1.65;;;20.10;76.60;;;;;;6244234;22;20383;-73
2023/07/01 01:23:26;;;;;;;2.97;1.60;;;20.10;76.60;;;;;;6244465;22;20012;-72
2023/07/01 01:26:00;;;;;;;5.78;1.92;;;20.20;76.60;;;;;;6271358;22;20397;-73
2023/07/01 01:28:25;;;;;;;9.10;2.97;;;20.20;76.60;;;;;;6271952;22;20000;-73
2023/07/01 01:30:51;;;;;;;6.43;2.00;;;20.20;76.50;;;;;;6271710;22;20453;-72
2023/07/01 01:33:17;;;;;;;4.93;1.90;;;20.10;76.50;;;;;;6271605;22;20301;-72
2023/07/01 01:35:43;;;;;;;3.42;1.80;;;20.20;76.60;;;;;;6244738;22;20006;-72
2023/07/01 01:38:08;;;;;;;5.32;2.28;;;20.10;76.60;;;;;;6271124;22;20003;-72
2023/07/01 01:40:46;;;;;;;2.20;1.58;;;20.10;76.70;;;;;;6271074;22;20310;-72
2023/07/01 01:43:18;;;;;;;3.28;1.88;;;20.20;77.10;;;;;;6271133;22;20019;-72
2023/07/01 01:45:45;;;;;;;4.60;2.03;;;20.20;77.30;;;;;;6271939;22;20057;-73
2023/07/01 01:48:12;;;;;;;7.45;1.95;;;20.10;77.20;;;;;;6271290;22;20007;-72
2023/07/01 01:50:39;;;;;;;4.72;1.88;;;20.10;77.40;;;;;;6244430;22;20008;-73
2023/07/01 01:53:05;;;;;;;4.65;1.90;;;20.10;77.40;;;;;;6271169;22;20135;-72
2023/07/01 01:55:31;;;;;;;3.63;1.33;;;20.20;77.60;;;;;;6271887;22;20107;-73
2023/07/01 01:58:01;;;;;;;3.88;2.20;;;20.10;77.70;;;;;;6271188;22;20004;-72
2023/07/01 02:00:27;;;;;;;2.95;1.48;;;20.10;77.80;;;;;;6271297;22;20083;-73
2023/07/01 02:02:52;;;;;;;2.72;1.45;;;20.10;77.90;;;;;;6243987;22;20031;-72
2023/07/01 02:05:18;;;;;;;4.70;1.58;;;20.10;78.00;;;;;;6271360;22;20483;-73
2023/07/01 02:07:44;;;;;;;4.95;2.42;;;20.10;78.40;;;;;;6271203;22;20004;-72
2023/07/01 02:10:09;;;;;;;5.72;2.22;;;20.10;78.90;;;;;;6271773;22;20402;-72
2023/07/01 02:12:35;;;;;;;8.02;2.75;;;20.00;79.10;;;;;;6272059;22;20007;-72
2023/07/01 02:15:01;;;;;;;5.15;1.83;;;20.00;79.20;;;;;;6271656;22;20002;-72
2023/07/01 02:17:26;;;;;;;5.13;2.15;;;20.00;79.40;;;;;;6271892;22;20071;-72
2023/07/01 02:19:52;;;;;;;9.70;2.15;;;20.00;79.60;;;;;;6272000;22;20356;-72
2023/07/01 02:22:18;;;;;;;3.75;1.67;;;20.00;80.10;;;;;;6271122;22;20039;-73
2023/07/01 02:24:43;;;;;;;7.32;2.25;;;20.00;80.30;;;;;;6245012;22;20150;-72
2023/07/01 02:27:09;;;;;;;3.97;1.60;;;20.00;80.60;;;;;;6244123;22;20011;-73
2023/07/01 02:29:35;;;;;;;6.53;2.13;;;20.00;80.70;;;;;;6244742;22;20017;-72
2023/07/01 02:32:00;;;;;;;4.75;1.92;;;20.00;81.00;;;;;;6271457;22;20032;-72
2023/07/01 02:34:27;;;;;;;5.00;2.38;;;20.00;81.70;;;;;;6272135;22;20476;-72
2023/07/01 02:36:56;;;;;;;7.45;1.77;;;20.00;82.50;;;;;;6271077;22;20365;-72
2023/07/01 02:39:22;;;;;;;4.47;2.42;;;20.00;83.10;;;;;;6271784;22;20010;-72
2023/07/01 02:41:47;;;;;;;4.68;2.03;;;19.90;83.80;;;;;;6272007;22;20004;-73
2023/07/01 02:44:13;;;;;;;2.80;1.88;;;19.80;84.20;;;;;;6271555;22;20168;-72
2023/07/01 02:46:38;;;;;;;7.32;1.92;;;19.80;84.70;;;;;;6271400;22;20031;-73
2023/07/01 02:49:04;;;;;;;6.20;1.52;;;19.80;85.00;;;;;;6244293;22;20130;-72
2023/07/01 02:51:30;;;;;;;3.80;1.67;;;19.80;86.00;;;;;;6271073;22;20008;-72
2023/07/01 02:53:55;;;;;;;5.40;1.98;;;19.70;85.50;;;;;;6271407;22;20003;-72
2023/07/01 02:56:21;;;;;;;5.28;1.88;;;19.70;86.40;;;;;;6271536;22;20009;-72
2023/07/01 02:58:46;;;;;;;4.93;1.77;;;19.70;86.10;;;;;;6271833;22;20000;-72
2023/07/01 03:01:13;;;;;;;4.63;1.90;;;19.70;86.40;;;;;;6271163;22;20386;-72
2023/07/01 03:03:39;;;;;;;3.90;1.80;;;19.70;86.50;;;;;;6244604;22;20314;-72
2023/07/01 03:06:05;;;;;;;3.90;1.85;;;19.70;86.70;;;;;;6272334;22;20002;-73
2023/07/01 03:08:31;;;;;;;7.55;1.83;;;19.70;86.80;;;;;;6273679;22;20002;-72
2023/07/01 03:10:56;;;;;;;4.65;2.20;;;19.70;87.00;;;;;;6273322;22;20317;-72
2023/07/01 03:13:22;;;;;;;6.38;2.97;;;19.60;87.20;;;;;;6273766;22;20042;-72
2023/07/01 03:15:47;;;;;;;3.63;1.30;;;19.60;87.80;;;;;;6273745;22;19996;-72
2023/07/01 03:18:13;;;;;;;3.08;2.03;;;19.60;88.20;;;;;;6273424;22;20030;-72
2023/07/01 03:20:38;;;;;;;3.38;1.90;;;19.60;88.40;;;;;;6245742;22;20016;-73
2023/07/01 03:23:04;;;;;;;3.90;1.50;;;19.60;88.70;;;;;;6273401;22;19999;-73
2023/07/01 03:25:31;;;;;;;3.35;2.15;;;19.60;89.10;;;;;;6273521;22;20012;-73
2023/07/01 03:27:57;;;;;;;7.18;2.30;;;19.60;89.40;;;;;;6273242;22;20008;-72
2023/07/01 03:30:30;;;;;;;4.95;2.20;;;19.60;89.90;;;;;;6273534;22;20443;-73
2023/07/01 03:32:56;;;;;;;5.97;2.33;;;19.60;90.10;;;;;;6273304;22;20414;-72
2023/07/01 03:35:22;;;;;;;2.97;1.58;;;19.60;90.20;;;;;;6273161;22;20004;-72
2023/07/01 03:37:48;;;;;;;5.25;2.30;;;19.50;90.50;;;;;;6273563;22;19996;-73
2023/07/01 03:40:13;;;;;;;5.28;2.13;;;19.50;90.60;;;;;;6273287;22;20015;-73
2023/07/01 03:42:40;;;;;;;3.55;1.42;;;19.50;90.80;;;;;;6273442;22;20010;-73
2023/07/01 03:45:08;;;;;;;2.80;1.63;;;19.50;90.90;;;;;;6273081;22;20309;-73
2023/07/01 03:47:44;;;;;;;4.63;2.40;;;19.40;91.00;;;;;;6273246;22;20038;-73
2023/07/01 03:50:11;;;;;;;3.80;1.95;;;19.40;91.20;;;;;;6272671;22;20010;-73
2023/07/01 03:52:38;;;;;;;5.68;1.90;;;19.50;91.30;;;;;;6273321;22;20003;-72
2023/07/01 03:55:05;;;;;;;4.85;2.10;;;19.40;91.40;;;;;;6273120;22;20390;-72
2023/07/01 03:57:31;;;;;;;3.60;2.38;;;19.40;91.50;;;;;;6273073;22;20005;-72
2023/07/01 03:59:57;;;;;;;3.28;1.58;;;19.40;91.50;;;;;;6272772;22;20016;-72
2023/07/01 04:02:22;;;;;;;4.30;1.58;;;19.30;91.60;;;;;;6273089;22;20412;-72
2023/07/01 04:04:48;;;;;;;3.28;1.80;;;19.40;91.70;;;;;;6272609;22;20354;-72
2023/07/01 04:07:14;;;;;;;3.72;1.88;;;19.40;91.80;;;;;;6271636;22;20004;-72
2023/07/01 04:09:39;;;;;;;4.97;1.80;;;19.40;91.90;;;;;;6245044;22;20057;-73
2023/07/01 04:12:05;;;;;;;3.22;1.77;;;19.30;92.10;;;;;;6272794;22;20426;-73
2023/07/01 04:14:31;;;;;;;4.13;2.30;;;19.30;92.10;;;;;;6245910;22;20000;-72
2023/07/01 04:16:56;;;;;;;2.97;1.50;;;19.30;92.20;;;;;;6272000;22;20405;-73
2023/07/01 04:19:23;;;;;;;3.85;1.88;;;19.30;92.20;;;;;;6272399;22;20443;-72
2023/07/01 04:21:48;;;;;;;4.60;2.00;;;19.30;92.50;;;;;;6246236;22;20014;-73
2023/07/01 04:24:14;;;;;;;3.78;1.42;;;19.30;92.70;;;;;;6272572;22;20078;-72
2023/07/01 04:26:41;;;;;;;3.88;1.60;;;19.30;92.90;;;;;;6273124;22;20083;-73
2023/07/01 04:29:07;;;;;;;4.05;2.28;;;19.20;93.10;;;;;;6272773;22;20004;-73
2023/07/01 04:31:33;;;;;;;4.82;2.15;;;19.20;93.30;;;;;;6272800;22;20446;-73
2023/07/01 04:33:58;;;;;;;4.57;1.80;;;19.20;93.40;;;;;;6272356;22;20006;-72
2023/07/01 04:36:24;;;;;;;2.65;1.60;;;19.20;93.60;;;;;;6272913;22;20007;-72
2023/07/01 04:38:49;;;;;;;5.07;1.95;;;19.10;93.70;;;;;;6272785;22;20007;-73
2023/07/01 04:41:15;;;;;;;4.90;1.75;;;19.10;93.90;;;;;;6272544;22;20413;-72
2023/07/01 04:43:41;;;;;;;5.40;1.98;;;19.10;94.20;;;;;;6273010;22;20008;-72
2023/07/01 04:46:07;;;;;;;2.80;2.08;;;19.10;94.60;;;;;;6272687;22;20006;-72
2023/07/01 04:48:33;;;;;;;3.15;1.73;;;19.10;94.50;;;;;;6272246;22;20000;-72
2023/07/01 04:50:58;;;;;;;3.90;2.17;;;19.10;94.70;;;;;;6272169;22;20003;-72
2023/07/01 04:53:24;;;;;;;5.78;2.03;;;19.10;94.90;;;;;;6245448;22;20022;-73
2023/07/01 04:55:50;;;;;;;2.60;2.17;;;19.00;95.10;;;;;;6272783;22;20004;-72
2023/07/01 04:58:15;;;;;;;2.90;1.95;;;19.00;95.30;;;;;;6272221;22;19995;-72
2023/07/01 05:00:42;;;;;;;3.15;2.30;;;19.00;95.50;;;;;;6272789;22;20437;-72
2023/07/01 05:03:07;;;;;;;3.78;2.00;;;19.00;95.70;;;;;;6244318;22;20007;-73
2023/07/01 05:05:33;;;;;;;2.90;1.90;;;18.90;95.90;;;;;;6245497;22;20000;-72
2023/07/01 05:07:58;;;;;;;3.75;2.05;;;18.90;96.30;;;;;;6272137;22;20000;-72
2023/07/01 05:10:24;;;;;;;3.20;1.77;;;18.90;96.40;;;;;;6245210;22;20003;-73
2023/07/01 05:12:50;;;;;;;2.90;1.75;;;18.90;96.60;;;;;;6245196;22;20035;-73
2023/07/01 05:15:16;;;;;;;1.95;1.60;;;18.90;96.80;;;;;;6272300;22;20341;-72
2023/07/01 05:17:43;;;;;;;4.20;2.05;;;18.90;96.90;;;;;;6271859;22;20027;-73
2023/07/01 05:20:10;;;;;;;3.72;1.77;;;18.80;97.10;;;;;;6272239;22;20004;-73
2023/07/01 05:22:36;;;;;;;1.90;1.38;;;18.90;97.20;;;;;;6272229;22;20000;-73
2023/07/01 05:25:03;;;;;;;1.95;1.45;;;18.90;97.40;;;;;;6244763;22;20011;-73
2023/07/01 05:27:29;;;;;;;4.82;1.73;;;18.90;97.60;;;;;;6244781;22;20035;-73
2023/07/01 05:29:54;;;;;;;2.30;1.67;;;18.80;97.70;;;;;;6245227;22;20000;-72
2023/07/01 05:32:20;;;;;;;2.53;2.15;;;18.80;97.90;;;;;;6271614;22;20007;-72
2023/07/01 05:34:45;;;;;;;2.97;2.08;;;18.80;98.00;;;;;;6272609;22;19992;-72
2023/07/01 05:37:11;;;;;;;2.20;1.98;;;18.80;98.20;;;;;;6244719;22;20000;-72
2023/07/01 05:39:37;;;;;;;2.38;1.88;;;18.80;98.30;;;;;;6272325;22;20117;-73
2023/07/01 05:42:03;;;;;;;1.95;1.75;;;18.80;98.40;;;;;;6271703;22;20031;-73
2023/07/01 05:44:29;;;;;;;2.42;1.85;;;18.80;98.60;;;;;;6271862;22;20034;-73
2023/07/01 05:46:55;;;;;;;2.13;1.92;;;18.80;98.70;;;;;;6243825;22;20080;-73
2023/07/01 05:49:21;;;;;;;2.80;2.00;;;18.80;98.90;;;;;;6272309;22;20004;-72
2023/07/01 05:51:46;;;;;;;3.33;2.08;;;18.80;99.00;;;;;;6244708;22;20004;-72
2023/07/01 05:54:12;;;;;;;2.63;2.22;;;18.80;99.20;;;;;;6244356;22;20114;-73
2023/07/01 05:56:38;;;;;;;5.68;2.55;;;18.80;99.20;;;;;;6244870;22;20440;-72
2023/07/01 05:59:04;;;;;;;2.50;2.17;;;18.80;99.40;;;;;;6244432;22;20105;-72
2023/07/01 06:01:30;;;;;;;2.45;1.80;;;18.80;99.60;;;;;;6271058;22;20016;-72
2023/07/01 06:03:55;;;;;;;3.22;1.92;;;18.80;99.70;;;;;;6271607;22;20378;-73
2023/07/01 06:06:21;;;;;;;2.72;2.35;;;18.90;99.80;;;;;;6272029;22;20004;-73
2023/07/01 06:08:47;;;;;;;3.15;2.35;;;18.90;99.90;;;;;;6272046;22;20067;-73
2023/07/01 06:11:13;;;;;;;4.25;1.40;;;18.90;99.90;;;;;;6271571;22;20004;-73
2023/07/01 06:13:47;;;;;;;2.80;1.50;;;18.90;99.90;;;;;;6271938;22;19996;-73
2023/07/01 06:16:14;;;;;;;2.97;2.40;;;18.90;99.90;;;;;;6270979;22;20013;-73
2023/07/01 06:18:40;;;;;;;4.68;1.75;;;19.00;99.90;;;;;;6271921;22;20011;-73
2023/07/01 06:21:06;;;;;;;2.75;1.65;;;19.00;99.90;;;;;;6244507;22;20495;-73
2023/07/01 06:23:36;;;;;;;2.00;1.80;;;19.10;99.90;;;;;;6271592;22;20006;-73
2023/07/01 06:26:03;;;;;;;3.05;2.30;;;19.10;99.90;;;;;;6271471;22;20004;-73
2023/07/01 06:28:28;;;;;;;2.42;1.90;;;19.10;99.90;;;;;;6271588;22;20004;-73
2023/07/01 06:30:54;;;;;;;3.10;1.88;;;19.10;99.90;;;;;;6270874;22;20003;-73
2023/07/01 06:33:20;;;;;;;2.30;1.95;;;19.20;99.90;;;;;;6244477;22;20314;-73
2023/07/01 06:35:45;;;;;;;1.77;1.67;;;19.20;99.90;;;;;;6271977;22;20000;-73
2023/07/01 06:38:12;;;;;;;1.95;1.70;;;19.20;99.90;;;;;;6244195;22;20000;-72
2023/07/01 06:40:37;;;;;;;1.60;1.50;;;19.20;99.90;;;;;;6271111;22;19999;-73
2023/07/01 06:43:03;;;;;;;3.13;1.90;;;19.30;99.90;;;;;;6271159;22;20011;-73
2023/07/01 06:45:30;;;;;;;3.08;1.83;;;19.30;99.90;;;;;;6271314;22;20425;-73
2023/07/01 06:47:56;;;;;;;2.33;2.00;;;19.30;99.90;;;;;;6271377;22;20010;-73
2023/07/01 06:50:21;;;;;;;1.60;1.20;;;19.30;99.90;;;;;;6271712;22;20003;-73
2023/07/01 06:52:47;;;;;;;3.50;1.80;;;19.30;99.90;;;;;;6271884;22;20015;-73
2023/07/01 06:55:15;;;;;;;2.33;1.38;;;19.30;99.90;;;;;;6271250;22;20034;-73
2023/07/01 06:57:41;;;;;;;2.58;1.45;;;19.30;99.90;;;;;;6271214;22;19999;-73
2023/07/01 07:00:10;;;;;;;2.45;1.52;;;19.30;99.90;;;;;;6270999;22;20016;-72
2023/07/01 07:02:36;;;;;;;1.83;1.63;;;19.30;99.90;;;;;;6244241;22;20031;-73
2023/07/01 07:05:06;;;;;;;2.47;1.70;;;19.30;99.90;;;;;;6271494;22;20004;-73
2023/07/01 07:07:32;;;;;;;3.08;1.63;;;19.40;99.90;;;;;;6271326;22;19999;-73
2023/07/01 07:09:57;;;;;;;4.55;1.45;;;19.50;99.90;;;;;;6244140;22;20087;-73
2023/07/01 07:12:23;;;;;;;2.90;1.30;;;19.50;99.90;;;;;;6270807;22;20027;-73
2023/07/01 07:14:49;;;;;;;3.15;1.88;;;19.50;99.90;;;;;;6271554;22;19996;-73
2023/07/01 07:17:14;;;;;;;2.45;1.40;;;19.50;99.90;;;;;;6271280;22;20023;-73
2023/07/01 07:19:40;;;;;;;2.00;1.60;;;19.60;99.90;;;;;;6271732;22;20004;-73
2023/07/01 07:22:06;;;;;;;1.85;1.23;;;19.60;99.90;;;;;;6271035;22;20000;-73
2023/07/01 07:24:31;;;;;;;2.42;1.33;;;19.50;99.90;;;;;;6271538;22;19999;-73
2023/07/01 07:27:00;;;;;;;2.80;1.65;;;19.60;99.90;;;;;;6243240;22;20008;-73
2023/07/01 07:29:29;;;;;;;2.28;1.40;;;19.50;99.90;;;;;;6271562;22;20003;-73
2023/07/01 07:31:55;;;;;;;1.90;1.60;;;19.60;99.90;;;;;;6271166;22;20004;-73
2023/07/01 07:34:22;;;;;;;2.30;1.40;;;19.60;99.90;;;;;;6271670;22;19996;-72
2023/07/01 07:36:47;;;;;;;1.73;1.45;;;19.60;99.90;;;;;;6271658;22;19995;-73
2023/07/01 07:39:13;;;;;;;1.38;1.27;;;19.60;99.90;;;;;;6243955;22;20019;-72
2023/07/01 07:41:40;;;;;;;2.45;1.40;;;19.60;99.90;;;;;;6270954;22;20715;-73
2023/07/01 07:44:06;;;;;;;1.45;1.10;;;19.70;99.90;;;;;;6242870;22;20133;-74
2023/07/01 07:46:35;;;;;;;1.27;1.02;;;19.80;99.90;;;;;;6270647;22;20391;-73
2023/07/01 07:49:02;;;;;;;2.75;1.00;;;19.90;99.90;;;;;;6269910;22;20110;-73
2023/07/01 07:51:27;;;;;;;1.65;1.55;;;19.80;99.90;;;;;;6271749;22;20333;-73
2023/07/01 07:53:54;;;;;;;1.63;1.52;;;19.90;99.90;;;;;;6273032;22;20053;-73
2023/07/01 07:56:20;;;;;;;1.40;1.10;;;19.90;99.90;;;;;;6245519;22;20012;-73
2023/07/01 07:58:45;;;;;;;1.70;1.42;;;19.80;99.90;;;;;;6246358;22;20004;-73
2023/07/01 08:01:11;;;;;;;1.25;1.10;;;19.90;99.90;;;;;;6272451;22;20480;-73
2023/07/01 08:03:38;;;;;;;1.73;1.50;;;19.90;99.90;;;;;;6273452;22;20127;-75
2023/07/01 08:06:04;;;;;;;2.63;1.38;;;19.90;99.90;;;;;;6272716;22;19999;-73
2023/07/01 08:08:30;;;;;;;2.63;2.00;;;20.00;99.90;;;;;;6245689;22;20011;-73
2023/07/01 08:10:55;;;;;;;1.50;1.40;;;19.90;99.90;;;;;;6272174;22;20397;-73
2023/07/01 08:13:22;;;;;;;1.65;1.48;;;20.00;99.90;;;;;;6272983;22;20085;-74
2023/07/01 08:15:48;;;;;;;1.90;1.60;;;19.90;99.90;;;;;;6273102;22;20011;-72
2023/07/01 08:18:13;;;;;;;1.67;1.58;;;20.00;99.90;;;;;;6272869;22;20000;-73
2023/07/01 08:20:39;;;;;;;1.83;1.50;;;20.00;99.90;;;;;;6272902;22;20082;-73
2023/07/01 08:23:05;;;;;;;1.67;1.58;;;20.00;99.90;;;;;;6245311;22;20010;-72
2023/07/01 08:25:30;;;;;;;1.67;1.30;;;20.10;99.90;;;;;;6272191;22;20003;-73
2023/07/01 08:27:58;;;;;;;2.03;1.63;;;20.20;99.90;;;;;;6272585;22;20014;-73
2023/07/01 08:30:23;;;;;;;1.40;1.10;;;20.20;99.90;;;;;;6272563;22;19999;-73
2023/07/01 08:32:49;;;;;;;1.60;1.35;;;20.20;99.90;;;;;;6272852;22;20069;-73
2023/07/01 08:35:14;;;;;;;3.55;1.65;;;20.20;99.90;;;;;;6272570;22;20007;-73
2023/07/01 08:37:40;;;;;;;1.90;1.35;;;20.30;99.90;;;;;;6272795;22;20000;-72
2023/07/01 08:40:09;;;;;;;1.90;0.98;;;20.30;99.90;;;;;;6271903;22;19999;-72
2023/07/01 08:42:50;;;;;;;2.50;1.83;;;20.40;99.90;;;;;;6272781;22;20014;-73
2023/07/01 08:45:20;;;;;;;2.33;1.58;;;20.40;99.90;;;;;;6272317;22;20000;-73
2023/07/01 08:47:47;;;;;;;1.92;1.60;;;20.40;99.90;;;;;;6273044;22;20000;-73
2023/07/01 08:50:17;;;;;;;1.63;1.02;;;20.40;99.90;;;;;;6272330;22;20003;-73
2023/07/01 08:52:47;;;;;;;1.75;1.38;;;20.30;99.90;;;;;;6272763;22;20710;-73
2023/07/01 08:55:13;;;;;;;1.88;1.77;;;20.30;99.90;;;;;;6272206;22;19996;-74
2023/07/01 08:57:40;;;;;;;2.13;1.92;;;20.30;99.90;;;;;;6272434;22;20003;-73
2023/07/01 09:00:12;;;;;;;2.17;1.80;;;20.40;99.90;;;;;;6244762;22;20008;-73
2023/07/01 09:02:39;;;;;;;2.05;1.95;;;20.40;99.90;;;;;;6271888;22;20019;-73
2023/07/01 09:05:05;;;;;;;3.03;2.13;;;20.50;99.90;;;;;;6272160;22;20093;-71
2023/07/01 09:07:31;;;;;;;2.63;1.75;;;20.50;99.90;;;;;;6272060;22;20054;-73
2023/07/01 09:09:57;;;;;;;2.60;1.98;;;20.60;99.90;;;;;;6271522;22;20007;-73
2023/07/01 09:12:27;;;;;;;2.45;1.20;;;20.60;99.90;;;;;;6244963;22;20011;-73
2023/07/01 09:15:04;;;;;;;1.90;1.80;;;20.60;99.90;;;;;;6271877;22;20021;-73
2023/07/01 09:17:40;;;;;;;2.60;2.40;;;20.60;99.90;;;;;;6272179;22;20011;-74
2023/07/01 09:20:11;;;;;;;2.30;1.67;;;20.50;99.90;;;;;;6271988;22;20095;-74
2023/07/01 09:22:43;;;;;;;2.92;2.30;;;20.50;99.90;;;;;;6271649;22;20035;-74
2023/07/01 09:25:08;;;;;;;2.67;2.17;;;20.60;99.90;;;;;;6272000;22;20718;-74
2023/07/01 09:27:49;;;;;;;1.95;1.85;;;20.60;99.90;;;;;;6272095;22;20000;-73
2023/07/01 09:30:24;;;;;;;1.98;1.88;;;20.70;99.90;;;;;;6271923;22;20000;-74
2023/07/01 09:32:50;;;;;;;3.35;2.55;;;20.70;99.90;;;;;;6272097;22;20023;-74
2023/07/01 09:35:16;;;;;;;2.50;2.35;;;20.80;99.90;;;;;;6244334;22;20041;-74
2023/07/01 09:37:41;;;;;;;3.13;2.38;;;20.80;99.90;;;;;;6271767;22;20063;-73
2023/07/01 09:40:21;;;;;;;3.13;2.92;;;20.80;99.90;;;;;;6244598;22;20036;-73
2023/07/01 09:42:54;;;;;;;3.78;1.90;;;20.80;99.90;;;;;;6272364;22;20004;-74
2023/07/01 09:45:21;;;;;;;2.22;2.13;;;20.70;99.90;;;;;;6271925;22;20008;-73
2023/07/01 09:47:53;;;;;;;2.70;2.40;;;20.70;99.90;;;;;;6272086;22;20027;-73
2023/07/01 09:50:28;;;;;;;2.75;2.53;;;20.70;99.90;;;;;;6272141;22;20421;-73
2023/07/01 09:52:55;;;;;;;2.83;2.60;;;20.60;99.90;;;;;;6270972;22;19999;-73
2023/07/01 09:55:21;;;;;;;3.15;2.83;;;20.60;99.90;;;;;;6271892;22;20334;-73
2023/07/01 09:57:47;;;;;;;3.00;2.75;;;20.50;99.90;;;;;;6244819;22;20091;-74
2023/07/01 10:00:16;;;;;;;4.72;2.55;;;20.50;99.90;;;;;;6271430;22;20421;-73
2023/07/01 10:02:46;;;;;;;1.95;1.77;;;20.50;99.90;;;;;;6271918;22;20004;-73
2023/07/01 10:05:13;;;;;;;3.25;2.63;;;20.60;99.90;;;;;;6271595;22;20014;-74
2023/07/01 10:07:40;;;;;;;2.25;2.05;;;20.70;99.90;;;;;;6270889;22;20003;-73
2023/07/01 10:10:11;;;;;;;3.22;2.92;;;20.70;99.90;;;;;;6270346;22;20155;-74
2023/07/01 10:12:40;;;;;;;4.00;2.92;;;20.80;99.90;;;;;;6271533;22;20027;-74
2023/07/01 10:15:08;;;;;;;3.30;3.10;;;20.70;99.90;;;;;;6271195;22;20434;-74
2023/07/01 10:17:46;;;;;;;3.05;2.67;;;20.70;99.90;;;;;;6270441;22;20003;-73
2023/07/01 10:20:29;;;;;;;2.78;2.55;;;20.60;99.90;;;;;;6271455;22;20003;-74
2023/07/01 10:22:59;;;;;;;2.67;2.47;;;20.60;99.90;;;;;;6243729;22;20402;-74
2023/07/01 10:25:41;;;;;;;3.58;2.78;;;20.50;99.90;;;;;;6271502;22;20000;-73
2023/07/01 10:28:08;;;;;;;2.65;2.40;;;20.50;99.90;;;;;;6271298;22;20372;-73
2023/07/01 10:30:43;;;;;;;3.85;3.40;;;20.50;99.90;;;;;;6244145;22;19999;-73
2023/07/01 10:33:27;;;;;;;5.38;3.72;;;20.50;99.90;;;;;;6271227;22;20004;-74
2023/07/01 10:36:19;;;;;;;3.67;3.15;;;20.60;99.90;;;;;;6243694;22;20352;-73
2023/07/01 10:38:45;;;;;;;3.45;3.15;;;20.70;99.90;;;;;;6265966;22;20418;-73
2023/07/01 10:41:11;;;;;;;3.83;3.38;;;20.70;99.90;;;;;;6271312;22;20046;-73
2023/07/01 10:43:37;;;;;;;4.35;3.53;;;20.80;99.90;;;;;;6271577;22;20108;-73
2023/07/01 10:46:23;;;;;;;5.22;3.90;;;20.80;99.90;;;;;;6270906;22;20004;-73
2023/07/01 10:49:04;;;;;;;4.30;4.00;;;20.90;99.90;;;;;;6271677;22;20075;-73
2023/07/01 10:51:31;;;;;;;3.22;2.92;;;21.00;99.90;;;;;;6270895;22;20080;-73
2023/07/01 10:54:00;;;;;;;4.47;3.80;;;21.00;99.90;;;;;;6271019;22;20049;-73
2023/07/01 10:56:38;;;;;;;4.65;3.60;;;21.10;99.90;;;;;;6244229;22;20011;-73
2023/07/01 10:59:21;;;;;;;3.83;3.53;;;21.20;99.90;;;;;;6271112;22;20011;-73
2023/07/01 11:01:47;;;;;;;4.00;3.67;;;21.20;99.90;;;;;;6271653;22;20090;-73
2023/07/01 11:04:13;;;;;;;6.28;4.60;;;21.20;99.90;;;;;;6270648;22;20011;-74
2023/07/01 11:06:49;;;;;;;4.65;4.10;;;21.30;99.90;;;;;;6271474;22;20000;-73
2023/07/01 11:09:24;;;;;;;5.38;4.50;;;21.40;99.90;;;;;;6271238;22;20386;-74
2023/07/01 11:11:50;;;;;;;4.15;3.75;;;21.50;99.90;;;;;;6271488;22;20012;-73
2023/07/01 11:14:16;;;;;;;5.28;4.35;;;21.70;99.90;;;;;;6271182;22;20087;-75
2023/07/01 11:16:41;;;;;;;4.93;4.55;;;21.80;99.90;;;;;;6244450;22;19995;-73
2023/07/01 11:19:09;;;;;;;3.92;3.63;;;21.90;99.90;;;;;;6270558;22;20000;-75
2023/07/01 11:21:36;;;;;;;5.32;4.03;;;22.00;99.90;;;;;;6271546;22;20004;-73
2023/07/01 11:24:09;;;;;;;4.25;3.95;;;22.10;99.90;;;;;;6270869;22;20011;-74
2023/07/01 11:26:40;;;;;;;3.40;3.10;;;22.10;99.90;;;;;;6272611;22;20003;-74
2023/07/01 11:29:12;;;;;;;5.00;4.50;;;22.10;99.90;;;;;;6273107;22;20030;-74
2023/07/01 11:31:39;;;;;;;4.00;3.60;;;22.20;99.90;;;;;;6273319;22;20042;-73
2023/07/01 11:34:04;;;;;;;4.88;4.38;;;22.40;99.90;;;;;;6272854;22;19996;-73
2023/07/01 11:36:36;;;;;;;3.97;3.58;;;22.50;99.90;;;;;;6273512;22;20004;-73
2023/07/01 11:39:09;;;;;;;6.10;4.57;;;22.60;99.90;;;;;;6272902;22;19997;-73
2023/07/01 11:41:36;;;;;;;5.30;4.90;;;22.70;99.90;;;;;;6273474;22;20010;-73
2023/07/01 11:44:06;;;;;;;5.43;4.95;;;22.80;99.90;;;;;;6272912;22;20082;-73
2023/07/01 11:46:33;;;;;;;4.95;4.18;;;22.70;99.90;;;;;;6273332;22;20329;-73
2023/07/01 11:49:23;;;;;;;5.70;5.05;;;22.70;99.90;;;;;;6272317;22;20007;-73
2023/07/01 11:51:54;;;;;;;4.90;4.50;;;22.60;99.90;;;;;;6273154;22;20142;-73
2023/07/01 11:54:21;;;;;;;5.47;4.97;;;22.60;99.90;;;;;;6273010;22;19992;-73
2023/07/01 11:56:48;;;;;;;5.65;5.15;;;22.60;99.90;;;;;;6273331;22;20015;-73
2023/07/01 11:59:29;;;;;;;6.13;5.60;;;22.60;99.90;;;;;;6272743;22;20026;-73
2023/07/01 12:01:55;;;;;;;6.25;5.60;;;22.60;99.90;;;;;;6272396;22;20082;-74
2023/07/01 12:04:22;;;;;;;5.63;5.15;;;22.60;99.90;;;;;;6272692;22;20050;-74
2023/07/01 12:06:48;;;;;;;5.53;5.13;;;22.80;99.90;;;;;;6273436;22;20069;-74
2023/07/01 12:09:29;;;;;;;8.43;6.40;;;22.90;99.90;;;;;;6272911;22;20410;-73
2023/07/01 12:11:55;;;;;;;5.65;5.22;;;23.20;99.90;;;;;;6272648;22;20000;-74
2023/07/01 12:14:22;;;;;;;5.43;4.93;;;23.30;99.90;;;;;;6272974;22;20026;-73
2023/07/01 12:16:49;;;;;;;6.53;4.90;;;23.50;99.90;;;;;;6272615;22;20045;-73
2023/07/01 12:19:22;;;;;;;5.68;5.10;;;23.50;99.90;;;;;;6272679;22;20007;-74
2023/07/01 12:21:50;;;;;;;5.75;5.25;;;23.50;99.90;;;;;;6273116;22;20011;-73
2023/07/01 12:24:35;;;;;;;5.78;5.28;;;23.40;99.90;;;;;;6272698;22;20003;-74
2023/07/01 12:27:03;;;;;;;6.93;6.32;;;23.20;99.90;;;;;;6245426;22;20425;-73
2023/07/01 12:29:28;;;;;;;7.50;6.47;;;22.90;99.90;;;;;;6272748;22;20417;-73
2023/07/01 12:31:54;;;;;;;5.60;4.97;;;22.70;99.90;;;;;;6272207;22;20011;-73
2023/07/01 12:34:20;;;;;;;4.43;4.13;;;22.60;99.90;;;;;;6273033;22;20010;-74
2023/07/01 12:36:47;;;;;;;4.13;3.80;;;22.50;99.90;;;;;;6272965;22;19999;-73
2023/07/01 12:39:16;;;;;;;4.20;3.80;;;22.50;99.90;;;;;;6272333;22;20003;-73
2023/07/01 12:41:52;;;;;;;4.68;4.15;;;22.50;99.90;;;;;;6272917;22;20374;-73
2023/07/01 12:44:17;;;;;;;5.47;4.93;;;22.50;99.90;;;;;;6272627;22;19995;-73
2023/07/01 12:46:44;;;;;;;6.35;5.72;;;22.40;99.90;;;;;;6272602;22;20046;-73
2023/07/01 12:49:11;;;;;;;5.97;5.55;;;22.40;99.90;;;;;;6272381;22;20011;-73
2023/07/01 12:51:37;;;;;;;6.72;6.20;;;22.30;99.90;;;;;;6272938;22;19999;-73